createdAt,value
2018-12-31T00:02:18.732Z,9.70
2018-12-31T00:06:31.229Z,9.70
2018-12-31T00:10:44.120Z,9.60
2018-12-31T00:14:56.488Z,9.60
2018-12-31T00:19:09.069Z,9.60
2018-12-31T00:23:21.735Z,9.50
2018-12-31T00:27:34.218Z,9.50
2018-12-31T00:31:47.123Z,9.60
2018-12-31T00:35:59.631Z,9.60
2018-12-31T00:40:12.339Z,9.60
2018-12-31T00:44:24.711Z,9.60
2018-12-31T00:48:37.048Z,9.50
2018-12-31T00:52:49.966Z,9.60
2018-12-31T00:57:02.476Z,9.50
2018-12-31T01:01:15.363Z,9.50
2018-12-31T01:05:27.909Z,9.30
2018-12-31T01:09:40.697Z,9.40
2018-12-31T01:13:53.246Z,9.40
2018-12-31T01:18:05.736Z,9.50
2018-12-31T01:22:18.659Z,9.60
2018-12-31T01:26:30.960Z,9.50
2018-12-31T01:30:43.688Z,9.40
2018-12-31T01:34:56.152Z,9.50
2018-12-31T01:39:09.168Z,9.50
2018-12-31T01:43:22.880Z,9.50
2018-12-31T01:47:35.548Z,9.50
2018-12-31T01:51:48.320Z,9.50
2018-12-31T01:56:00.864Z,9.40
2018-12-31T02:00:13.568Z,9.40
2018-12-31T02:04:26.121Z,9.40
2018-12-31T02:08:39.677Z,9.40
2018-12-31T02:12:52.657Z,9.50
2018-12-31T02:17:04.873Z,9.40
2018-12-31T02:21:17.528Z,9.50
2018-12-31T02:25:30.328Z,9.50
2018-12-31T02:29:42.749Z,9.50
2018-12-31T02:33:55.559Z,9.50
2018-12-31T02:38:08.013Z,9.50
2018-12-31T02:42:20.896Z,9.60
2018-12-31T02:46:33.424Z,9.60
2018-12-31T02:50:46.344Z,9.50
2018-12-31T02:54:58.701Z,9.40
2018-12-31T02:59:11.266Z,9.30
2018-12-31T03:03:23.938Z,9.30
2018-12-31T03:07:36.252Z,9.30
2018-12-31T03:11:49.141Z,9.40
2018-12-31T03:16:01.600Z,9.40
2018-12-31T03:20:14.620Z,9.30
2018-12-31T03:24:27.104Z,9.30
2018-12-31T03:28:39.932Z,9.30
2018-12-31T03:32:52.459Z,9.30
2018-12-31T03:37:05.268Z,9.40
2018-12-31T03:41:17.729Z,9.30
2018-12-31T03:45:30.151Z,9.20
2018-12-31T03:49:42.819Z,9.20
2018-12-31T03:53:55.176Z,9.20
2018-12-31T03:58:07.489Z,9.20
2018-12-31T04:02:20.342Z,9.30
2018-12-31T04:06:32.740Z,9.20
2018-12-31T04:10:45.524Z,9.20
2018-12-31T04:14:58.071Z,9.30
2018-12-31T04:19:10.354Z,9.30
2018-12-31T04:23:23.340Z,9.20
2018-12-31T04:27:35.745Z,9.20
2018-12-31T04:31:48.577Z,9.20
2018-12-31T04:36:01.263Z,9.20
2018-12-31T04:40:14.725Z,9.10
2018-12-31T04:44:27.132Z,9.10
2018-12-31T04:48:39.920Z,9.10
2018-12-31T04:52:52.376Z,9.10
2018-12-31T04:57:04.589Z,9.10
2018-12-31T05:01:17.948Z,8.90
2018-12-31T05:05:30.973Z,8.80
2018-12-31T05:09:43.443Z,8.80
2018-12-31T05:13:56.254Z,8.80
2018-12-31T05:18:08.708Z,8.90
2018-12-31T05:22:21.764Z,8.90
2018-12-31T05:26:34.427Z,8.90
2018-12-31T05:30:47.044Z,9.00
2018-12-31T05:34:59.496Z,9.00
2018-12-31T05:39:13.108Z,9.00
2018-12-31T05:43:25.255Z,8.80
2018-12-31T05:47:38.138Z,8.70
2018-12-31T05:51:50.684Z,8.70
2018-12-31T05:56:03.028Z,8.70
2018-12-31T06:00:15.795Z,8.70
2018-12-31T06:04:28.051Z,8.80
2018-12-31T06:08:40.670Z,8.80
2018-12-31T06:12:53.427Z,8.90
2018-12-31T06:17:05.700Z,8.90
2018-12-31T06:21:18.561Z,9.00
2018-12-31T06:25:31.124Z,9.00
2018-12-31T06:29:43.935Z,9.00
2018-12-31T06:33:56.433Z,8.90
2018-12-31T06:38:08.808Z,8.90
2018-12-31T06:42:21.647Z,9.00
2018-12-31T06:46:34.048Z,9.00
2018-12-31T06:50:47.040Z,9.00
2018-12-31T06:54:59.601Z,9.00
2018-12-31T06:59:12.376Z,9.00
2018-12-31T07:03:26.016Z,9.10
2018-12-31T07:07:38.373Z,9.10
2018-12-31T07:11:51.916Z,9.10
2018-12-31T07:16:04.619Z,9.00
2018-12-31T07:20:17.328Z,8.90
2018-12-31T07:24:30.211Z,8.90
2018-12-31T07:28:42.812Z,9.00
2018-12-31T07:32:55.801Z,9.00
2018-12-31T07:37:08.261Z,9.10
2018-12-31T07:41:21.235Z,9.10
2018-12-31T07:45:33.664Z,9.10
2018-12-31T07:49:46.586Z,9.10
2018-12-31T07:53:59.049Z,9.10
2018-12-31T07:58:11.928Z,9.10
2018-12-31T08:02:24.394Z,9.10
2018-12-31T08:06:36.703Z,9.10
2018-12-31T08:10:49.481Z,9.00
2018-12-31T08:15:02.003Z,9.10
2018-12-31T08:19:14.728Z,9.10
2018-12-31T08:23:27.249Z,9.20
2018-12-31T08:27:40.233Z,9.20
2018-12-31T08:31:52.734Z,9.10
2018-12-31T08:36:05.141Z,9.20
2018-12-31T08:40:17.932Z,9.20
2018-12-31T08:44:30.350Z,9.10
2018-12-31T08:48:43.229Z,9.10
2018-12-31T08:52:55.628Z,9.00
2018-12-31T08:57:08.056Z,9.10
2018-12-31T09:01:20.830Z,9.10
2018-12-31T09:05:33.325Z,9.20
2018-12-31T09:09:46.207Z,9.20
2018-12-31T09:13:58.731Z,9.30
2018-12-31T09:18:11.128Z,9.30
2018-12-31T09:22:24.225Z,9.30
2018-12-31T09:26:37.219Z,9.40
2018-12-31T09:30:49.719Z,9.50
2018-12-31T09:35:02.028Z,9.60
2018-12-31T09:39:14.808Z,9.50
2018-12-31T09:43:27.176Z,9.50
2018-12-31T09:47:39.493Z,9.60
2018-12-31T09:51:54.170Z,9.70
2018-12-31T09:56:06.577Z,9.70
2018-12-31T10:00:19.444Z,9.70
2018-12-31T10:04:32.989Z,9.50
2018-12-31T10:08:49.180Z,9.40
2018-12-31T10:12:59.564Z,9.50
2018-12-31T10:17:12.024Z,9.60
2018-12-31T10:21:24.496Z,9.70
2018-12-31T10:25:39.228Z,9.70
2018-12-31T10:29:52.740Z,9.60
2018-12-31T10:34:05.548Z,9.80
2018-12-31T10:38:17.992Z,9.80
2018-12-31T10:42:31.052Z,9.80
2018-12-31T10:46:43.333Z,9.70
2018-12-31T10:50:56.889Z,9.80
2018-12-31T10:55:09.298Z,9.90
2018-12-31T10:59:22.184Z,9.90
2018-12-31T11:03:34.640Z,9.90
2018-12-31T11:07:47.519Z,9.90
2018-12-31T11:11:59.849Z,10.00
2018-12-31T11:16:12.665Z,10.00
2018-12-31T11:20:25.232Z,9.90
2018-12-31T11:24:37.503Z,10.00
2018-12-31T11:28:50.357Z,10.00
2018-12-31T11:33:02.683Z,10.00
2018-12-31T11:37:15.090Z,10.10
2018-12-31T11:41:28.043Z,10.10
2018-12-31T11:45:40.565Z,10.10
2018-12-31T11:49:54.493Z,10.10
2018-12-31T11:54:08.736Z,10.10
2018-12-31T11:58:21.164Z,10.10
2018-12-31T12:02:34.102Z,10.10
2018-12-31T12:06:49.164Z,10.10
2018-12-31T12:11:01.696Z,10.20
2018-12-31T12:15:14.775Z,10.30
2018-12-31T12:19:27.233Z,10.40
2018-12-31T12:23:40.263Z,10.50
2018-12-31T12:27:52.852Z,10.60
2018-12-31T12:32:05.569Z,10.60
2018-12-31T12:36:18.029Z,10.60
2018-12-31T12:40:31.017Z,10.60
2018-12-31T12:44:43.364Z,10.60
2018-12-31T12:48:55.781Z,10.60
2018-12-31T12:53:08.668Z,10.60
2018-12-31T12:57:21.108Z,10.60
2018-12-31T13:01:34.725Z,10.70
2018-12-31T13:05:47.649Z,10.70
2018-12-31T13:09:59.998Z,10.70
2018-12-31T13:14:12.805Z,10.60
2018-12-31T13:18:25.373Z,10.70
2018-12-31T13:22:38.136Z,10.80
2018-12-31T13:26:50.653Z,10.80
2018-12-31T13:31:03.683Z,11.00
2018-12-31T13:35:16.340Z,10.90
2018-12-31T13:39:29.689Z,10.80
2018-12-31T13:43:42.570Z,10.80
2018-12-31T13:47:55.029Z,10.80
2018-12-31T13:52:07.909Z,10.80
2018-12-31T13:56:20.368Z,10.80
2018-12-31T14:00:33.916Z,10.80
2018-12-31T14:04:46.216Z,10.80
2018-12-31T14:08:59.008Z,10.90
2018-12-31T14:13:11.465Z,10.90
2018-12-31T14:17:24.376Z,10.90
2018-12-31T14:21:36.942Z,10.80
2018-12-31T14:25:49.405Z,10.90
2018-12-31T14:30:02.260Z,10.90
2018-12-31T14:34:14.739Z,10.90
2018-12-31T14:38:27.783Z,11.00
2018-12-31T14:42:40.106Z,11.00
2018-12-31T14:46:53.157Z,10.90
2018-12-31T14:51:05.576Z,10.90
2018-12-31T14:55:18.449Z,10.80
2018-12-31T14:59:30.901Z,10.70
2018-12-31T15:03:43.864Z,10.60
2018-12-31T15:07:56.553Z,10.60
2018-12-31T15:12:09.056Z,10.70
2018-12-31T15:16:21.853Z,10.70
2018-12-31T15:20:34.208Z,10.80
2018-12-31T15:24:47.408Z,10.70
2018-12-31T15:29:00.706Z,10.70
2018-12-31T15:33:13.103Z,10.70
2018-12-31T15:37:26.051Z,10.70
2018-12-31T15:41:38.633Z,10.80
2018-12-31T15:45:51.527Z,10.80
2018-12-31T15:50:04.033Z,10.80
2018-12-31T15:54:16.354Z,10.80
2018-12-31T15:58:30.313Z,10.80
2018-12-31T16:02:44.061Z,10.70
2018-12-31T16:06:58.161Z,10.80
2018-12-31T16:11:10.932Z,10.80
2018-12-31T16:15:23.398Z,10.80
2018-12-31T16:19:36.416Z,10.80
2018-12-31T16:23:48.954Z,10.80
2018-12-31T16:28:02.167Z,10.70
2018-12-31T16:32:14.584Z,10.60
2018-12-31T16:36:27.508Z,10.50
2018-12-31T16:40:40.009Z,10.50
2018-12-31T16:44:52.343Z,10.50
2018-12-31T16:49:05.133Z,10.50
2018-12-31T16:53:17.490Z,10.50
2018-12-31T16:57:30.373Z,10.50
2018-12-31T17:01:43.952Z,10.50
2018-12-31T17:05:56.392Z,10.50
2018-12-31T17:10:10.870Z,10.50
2018-12-31T17:14:23.551Z,10.50
2018-12-31T17:18:36.437Z,10.50
2018-12-31T17:22:48.904Z,10.50
2018-12-31T17:27:01.932Z,10.50
2018-12-31T17:31:14.489Z,10.50
2018-12-31T17:35:28.143Z,10.50
2018-12-31T17:39:40.877Z,10.50
2018-12-31T17:43:53.556Z,10.30
2018-12-31T17:48:06.429Z,10.30
2018-12-31T17:52:18.781Z,10.30
2018-12-31T17:56:31.214Z,10.30
2018-12-31T18:00:44.121Z,10.30
2018-12-31T18:04:56.523Z,10.30
2018-12-31T18:09:09.878Z,10.30
2018-12-31T18:13:22.929Z,10.30
2018-12-31T18:17:35.620Z,10.40
2018-12-31T18:21:48.407Z,10.40
2018-12-31T18:26:00.995Z,10.50
2018-12-31T18:30:13.957Z,10.40
2018-12-31T18:34:26.411Z,10.40
2018-12-31T18:38:39.214Z,10.40
2018-12-31T18:42:51.749Z,10.30
2018-12-31T18:47:04.732Z,10.40
2018-12-31T18:51:17.205Z,10.20
2018-12-31T18:55:30.132Z,10.20
2018-12-31T18:59:42.705Z,10.20
2018-12-31T19:03:55.528Z,10.20
2018-12-31T19:08:08.121Z,10.20
2018-12-31T19:12:22.467Z,10.10
2018-12-31T19:16:35.244Z,10.10
2018-12-31T19:20:48.165Z,10.10
2018-12-31T19:25:00.633Z,10.10
2018-12-31T19:29:13.167Z,10.10
2018-12-31T19:33:25.816Z,10.10
2018-12-31T19:37:38.304Z,10.00
2018-12-31T19:41:51.949Z,10.00
2018-12-31T19:46:04.911Z,10.00
2018-12-31T19:50:17.326Z,9.90
2018-12-31T19:54:30.038Z,9.80
2018-12-31T19:58:42.403Z,9.80
2018-12-31T20:02:55.390Z,9.80
2018-12-31T20:07:07.847Z,9.80
2018-12-31T20:11:20.637Z,9.80
2018-12-31T20:15:33.184Z,9.90
2018-12-31T20:19:46.153Z,9.90
2018-12-31T20:23:58.740Z,9.80
2018-12-31T20:28:11.277Z,9.80
2018-12-31T20:32:24.286Z,9.80
2018-12-31T20:36:36.714Z,9.80
2018-12-31T20:40:49.380Z,9.80
2018-12-31T20:45:01.736Z,9.80
2018-12-31T20:49:14.144Z,9.80
2018-12-31T20:53:26.900Z,9.80
2018-12-31T20:57:39.389Z,9.70
2018-12-31T21:01:53.670Z,9.70
2018-12-31T21:06:06.276Z,9.70
2018-12-31T21:10:19.831Z,9.70
2018-12-31T21:14:33.462Z,9.70
2018-12-31T21:18:45.865Z,9.70
2018-12-31T21:22:59.278Z,9.70
2018-12-31T21:27:12.238Z,9.70
2018-12-31T21:31:24.655Z,9.70
2018-12-31T21:35:37.064Z,9.80
2018-12-31T21:39:49.859Z,9.80
2018-12-31T21:44:02.208Z,9.80
2018-12-31T21:48:14.611Z,9.70
2018-12-31T21:52:27.681Z,9.60
2018-12-31T21:56:40.020Z,9.60
2018-12-31T22:00:52.753Z,9.60
2018-12-31T22:05:05.101Z,9.60
2018-12-31T22:09:17.995Z,9.60
2018-12-31T22:13:31.939Z,9.60
2018-12-31T22:17:44.409Z,9.60
2018-12-31T22:21:57.311Z,9.60
2018-12-31T22:26:09.857Z,9.60
2018-12-31T22:30:22.792Z,9.60
2018-12-31T22:34:35.367Z,9.60
2018-12-31T22:38:48.196Z,9.60
2018-12-31T22:43:00.641Z,9.70
2018-12-31T22:47:13.624Z,9.60
2018-12-31T22:51:25.988Z,9.60
2018-12-31T22:55:38.386Z,9.50
2018-12-31T22:59:52.369Z,9.40
2018-12-31T23:04:04.974Z,9.50
2018-12-31T23:08:17.978Z,9.50
2018-12-31T23:12:30.532Z,9.50
2018-12-31T23:16:45.499Z,9.50
2018-12-31T23:20:57.804Z,9.40
2018-12-31T23:25:10.711Z,9.40
2018-12-31T23:29:23.230Z,9.40
2018-12-31T23:33:36.003Z,9.40
2018-12-31T23:37:48.758Z,9.40
2018-12-31T23:42:01.478Z,9.30
2018-12-31T23:46:14.032Z,9.40
2018-12-31T23:50:26.922Z,9.30
2018-12-31T23:54:39.376Z,9.20
2018-12-31T23:58:54.160Z,9.10
